Data for 05/11/2017

Time Sea-Level Adjusted Pressure Absolute Pressure Temperature Relative Humidity Dew Point   
(mb) (inHg) (mb) (inHg) (C) (F) (%) (C) (F)
00:05 1018 30.06 847 25.01 12.2 53.9 51 2.4 36.4
00:10 1018 30.06 847 25.01 12.1 53.7 51 2.4 36.3
00:15 1018 30.06 847 25.01 12 53.6 51 2.4 36.3
00:20 1018 30.06 848 25.04 11.9 53.5 52 2.3 36.2
00:25 1018 30.06 848 25.04 11.9 53.5 51 2.2 36
00:30 1018 30.06 848 25.04 12 53.5 51 2.3 36.1
00:35 1018 30.06 848 25.04 11.8 53.3 52 2.3 36.2
00:40 1018 30.06 848 25.04 11.7 53 53 2.4 36.2
00:45 1018 30.06 848 25.04 11.5 52.7 54 2.5 36.5
00:50 1018 30.06 848 25.04 11.2 52.1 56 2.7 36.9
00:55 1018 30.06 848 25.04 10.9 51.6 56 2.6 36.6
01:00 1018 30.06 848 25.04 10.9 51.6 56 2.5 36.4
01:05 1018 30.06 848 25.04 11 51.8 54 2.2 35.9
01:10 1018 30.06 848 25.04 11.3 52.4 53 2.3 36.1
01:15 1018 30.06 848 25.04 11.4 52.5 53 2.3 36.1
01:20 1018 30.06 848 25.04 11.4 52.5 54 2.5 36.4
01:25 1019 30.09 848 25.04 11.1 52 54 2.2 36
01:30 1019 30.09 848 25.04 11.2 52.1 53 2.1 35.7
01:35 1019 30.09 848 25.04 11.3 52.4 52 1.9 35.4
01:40 1019 30.09 848 25.04 11.2 52.2 53 2 35.5
01:45 1019 30.09 848 25.04 11 51.8 53 1.9 35.5
01:50 1019 30.09 848 25.04 10.8 51.4 53 1.7 35.1
01:55 1019 30.09 848 25.04 10.5 50.9 53 1.3 34.4
02:00 1019 30.09 848 25.04 10.8 51.4 54 1.8 35.3
02:05 1019 30.09 848 25.04 10.8 51.4 55 2.1 35.8
02:10 1019 30.09 848 25.04 10.6 51.1 56 2.3 36.1
02:15 1019 30.09 848 25.04 10.6 51.1 56 2.1 35.9
02:20 1019 30.09 848 25.04 10.6 51.2 56 2.3 36.2
02:10 1019 30.09 848 25.04 10.6 51.1 56 2.3 36.1
02:15 1019 30.09 848 25.04 10.6 51.1 56 2.1 35.9
02:20 1019 30.09 848 25.04 10.6 51.2 56 2.3 36.2
02:25 1019 30.09 848 25.04 10.6 51 57 2.3 36.2
02:30 1019 30.09 848 25.04 10.5 50.9 57 2.3 36.1
02:35 1019 30.09 848 25.04 10.5 50.8 57 2.3 36.2
02:40 1019 30.09 848 25.04 10.3 50.5 58 2.4 36.3
02:45 1019 30.09 848 25.04 9.9 49.9 59 2.4 36.2
02:50 1019 30.09 848 25.04 9.7 49.4 60 2.2 36
02:55 1019 30.09 848 25.04 9.7 49.4 58 1.9 35.3
03:00 1019 30.09 848 25.04 9.8 49.7 58 2 35.6
03:05 1019 30.09 848 25.04 9.8 49.6 59 2.1 35.8
03:10 1019 30.09 848 25.04 9.7 49.5 59 2.2 36
03:15 1019 30.09 848 25.04 9.6 49.2 60 2.2 35.9
03:20 1019 30.09 848 25.04 9.4 48.9 60 2.2 35.9
03:25 1019 30.09 848 25.04 9.3 48.7 61 2.1 35.8
03:30 1019 30.09 848 25.04 9.3 48.7 61 2.1 35.8
03:35 1019 30.09 848 25.04 9.2 48.6 61 2.1 35.7
03:40 1019 30.09 848 25.04 9.1 48.4 61 2.1 35.8
03:45 1019 30.09 848 25.04 9 48.2 62 2.1 35.7
03:50 1019 30.09 848 25.04 9 48.3 62 2.1 35.8
03:55 1019 30.09 848 25.04 9 48.2 62 2.1 35.7
04:00 1019 30.09 848 25.04 9.2 48.5 61 2.1 35.8
04:05 1019 30.09 848 25.04 9.2 48.5 61 2.1 35.7
04:10 1019 30.09 848 25.04 9.1 48.3 61 2 35.6
04:15 1019 30.09 848 25.04 9 48.2 61 1.9 35.4
04:20 1019 30.09 848 25.04 9 48.1 61 1.9 35.5
04:25 1019 30.09 849 25.07 9 48.3 61 1.9 35.4
04:30 1019 30.09 849 25.07 9.2 48.6 60 1.8 35.2
04:35 1019 30.09 849 25.07 9.2 48.6 60 1.9 35.4
04:40 1019 30.09 849 25.07 9 48.3 60 1.8 35.2
04:45 1019 30.09 849 25.07 9 48.1 61 1.8 35.3
04:50 1019 30.09 849 25.07 9 48.2 60 1.8 35.3
04:55 1020 30.12 849 25.07 9 48.3 61 1.8 35.3
05:00 1020 30.12 849 25.07 9 48.2 60 1.8 35.2
05:05 1020 30.12 849 25.07 8.9 48.1 61 1.7 35.1
05:10 1020 30.12 849 25.07 9 48.3 60 1.6 34.9
05:15 1020 30.12 849 25.07 9.1 48.4 60 1.7 35.1
05:20 1020 30.12 849 25.07 9.1 48.4 60 1.7 35
05:25 1020 30.12 849 25.07 9.1 48.3 59 1.5 34.8
05:30 1020 30.12 849 25.07 9.2 48.6 58 1.5 34.7
05:35 1020 30.12 849 25.07 9.4 48.8 58 1.5 34.8
05:40 1020 30.12 849 25.07 9.4 48.9 58 1.6 34.8
05:45 1020 30.12 849 25.07 9.6 49.2 57 1.5 34.7
05:50 1020 30.12 849 25.07 9.8 49.6 56 1.5 34.7
05:55 1020 30.12 849 25.07 9.9 49.8 56 1.6 34.9
06:00 1020 30.12 849 25.07 10 50 56 1.6 34.8
06:05 1020 30.12 849 25.07 10.3 50.6 55 1.7 35.1
06:10 1020 30.12 849 25.07 10.5 51 55 1.8 35.3
06:15 1020 30.12 849 25.07 10.7 51.2 54 1.8 35.2
06:20 1020 30.12 849 25.07 10.9 51.5 54 1.9 35.5
06:25 1020 30.12 849 25.07 10.9 51.6 54 1.9 35.5
06:30 1020 30.12 849 25.07 11.1 52 53 2 35.5
06:35 1020 30.12 849 25.07 11.6 52.8 52 2 35.7
06:40 1020 30.12 849 25.07 11.8 53.3 51 2.1 35.8
06:45 1020 30.12 849 25.07 12.3 54.2 49 2.1 35.7
06:50 1020 30.12 849 25.07 12.6 54.7 49 2.4 36.3
06:55 1020 30.12 849 25.07 13 55.3 49 2.5 36.6
07:00 1020 30.12 849 25.07 13.1 55.6 49 2.6 36.7
07:05 1020 30.12 849 25.07 13.8 56.9 46 2.6 36.7
07:10 1020 30.12 849 25.07 14.2 57.5 45 2.6 36.6
07:15 1020 30.12 849 25.07 14.6 58.2 44 2.5 36.6
07:20 1020 30.12 849 25.07 14.2 57.6 44 2.3 36.1
07:25 1020 30.12 849 25.07 14.4 57.9 44 2.4 36.3
07:30 1020 30.12 849 25.07 15.3 59.5 42 2.5 36.5
07:35 1020 30.12 849 25.07 15.4 59.7 43 3.1 37.5
07:40 1020 30.12 849 25.07 15.2 59.4 41 2.3 36.1
07:45 1020 30.12 849 25.07 15.7 60.2 45 4 39.1
07:50 1020 30.12 849 25.07 15.9 60.6 39 2.1 35.8
07:55 1020 30.12 849 25.07 15.9 60.7 39 2.3 36.1
08:00 1020 30.12 849 25.07 16.5 61.7 37 1.8 35.3
08:05 1020 30.12 849 25.07 16.9 62.4 37 2.1 35.9
08:10 1020 30.12 849 25.07 17 62.5 33 0.9 33.6
08:15 1020 30.12 849 25.07 17.3 63.1 34 1.5 34.7
08:20 1020 30.12 849 25.07 17.6 63.6 33 1 33.9
08:25 1020 30.12 849 25.07 18.7 65.7 32 1.6 35
08:30 1020 30.12 849 25.07 17.9 64.2 34 1.8 35.2
08:35 1020 30.12 849 25.07 18.3 64.9 31 1 33.8
08:40 1020 30.12 849 25.07 19.2 66.5 30 1.5 34.8
08:45 1020 30.12 849 25.07 19.4 66.9 30 1.5 34.8
08:50 1020 30.12 849 25.07 19.3 66.8 31 1.9 35.4
08:55 1020 30.12 849 25.07 19.1 66.4 32 2.1 35.7
09:00 1020 30.12 849 25.07 18.8 65.8 34 2.7 36.9
09:05 1020 30.12 849 25.07 19.6 67.2 33 2.9 37.1
09:10 1020 30.12 849 25.07 20.1 68.3 33 3.4 38.1
09:15 1020 30.12 849 25.07 20.1 68.1 32 3.1 37.6
09:20 1020 30.12 849 25.07 19.9 67.9 34 3.7 38.7
09:25 1020 30.12 849 25.07 20.2 68.4 32 3.1 37.6
09:30 1020 30.12 849 25.07 20.3 68.6 31 2.9 37.3
09:35 1019 30.09 849 25.07 20.4 68.8 31 3.1 37.6
09:40 1019 30.09 849 25.07 19.1 66.4 35 3.3 37.9
09:45 1019 30.09 849 25.07 19.8 67.6 31 2.3 36.1
09:50 1019 30.09 849 25.07 20.9 69.6 29 2.6 36.6
09:55 1019 30.09 849 25.07 20.1 68.3 32 2.9 37.2
10:00 1019 30.09 848 25.04 20.4 68.7 29 2.1 35.8
10:05 1019 30.09 848 25.04 21.1 70 29 2.6 36.7
10:10 1019 30.09 848 25.04 21.8 71.2 28 2.5 36.5
10:15 1019 30.09 848 25.04 22 71.7 27 2.5 36.5
10:20 1019 30.09 848 25.04 22 71.6 26 2.1 35.7
10:25 1019 30.09 848 25.04 22.5 72.5 26 2.1 35.8
10:30 1019 30.09 848 25.04 22.5 72.5 27 3 37.4
10:35 1019 30.09 848 25.04 22.5 72.4 26 2.5 36.5
10:40 1019 30.09 848 25.04 22.4 72.4 28 3.2 37.7
10:45 1019 30.09 848 25.04 21.3 70.3 28 2.1 35.8
10:50 1019 30.09 848 25.04 21.5 70.7 28 2.3 36.1
10:55 1019 30.09 848 25.04 22.2 72 26 2.2 36
11:00 1019 30.09 848 25.04 22.4 72.3 27 2.8 37
11:05 1019 30.09 848 25.04 22.8 73 28 3.8 38.8
11:10 1019 30.09 848 25.04 22 71.6 26 2.1 35.7
11:15 1019 30.09 848 25.04 22.6 72.7 27 2.7 36.9
11:20 1019 30.09 848 25.04 23.5 74.3 26 3.1 37.6
11:25 1019 30.09 848 25.04 23.6 74.6 27 3.8 38.8
11:30 1019 30.09 848 25.04 23.5 74.2 27 3.8 38.8
11:35 1019 30.09 848 25.04 23.2 73.8 27 3.3 38
11:40 1019 30.09 848 25.04 23.6 74.4 25 2.6 36.7
11:45 1019 30.09 848 25.04 23.6 74.5 26 3.3 38
11:50 1019 30.09 848 25.04 24.2 75.5 24 2.5 36.5
11:55 1019 30.09 848 25.04 24 75.2 24 2.2 35.9
12:00 1018 30.06 848 25.04 23.9 75.1 26 3.4 38.1
12:05 1018 30.06 848 25.04 24.2 75.5 23 2.2 35.9
12:10 1018 30.06 848 25.04 24 75.3 23 2 35.7
12:15 1018 30.06 848 25.04 23.7 74.6 22 1.1 33.9
12:20 1018 30.06 848 25.04 23.6 74.5 23 1.4 34.6
12:25 1018 30.06 847 25.01 24.2 75.5 22 1.1 33.9
12:30 1018 30.06 847 25.01 24.5 76.2 21 1.1 34
12:35 1018 30.06 847 25.01 24.5 76 22 1.6 34.8
12:40 1018 30.06 847 25.01 24.9 76.9 21 1.4 34.6
12:45 1018 30.06 847 25.01 24.8 76.6 21 1.1 33.9
12:50 1018 30.06 847 25.01 25 76.9 19 0.1 32.2
12:55 1018 30.06 847 25.01 25.8 78.4 20 1.2 34.1
13:00 1018 30.06 847 25.01 26.3 79.3 19 1 33.9
13:05 1018 30.06 847 25.01 26.1 78.9 19 1.1 34
13:10 1018 30.06 847 25.01 25 76.9 20 0.8 33.4
13:15 1018 30.06 847 25.01 24.4 75.9 20 0.5 33
13:20 1018 30.06 847 25.01 25 77.1 19 0.4 32.7
13:25 1018 30.06 847 25.01 26 78.8 19 0.6 33.2
13:30 1018 30.06 847 25.01 26.3 79.3 19 1.1 34
13:35 1018 30.06 847 25.01 25.1 77.1 20 0.6 33
13:40 1018 30.06 847 25.01 25.9 78.7 18 0.2 32.4
13:45 1018 30.06 847 25.01 26.7 80.1 17 -0.1 31.9
13:50 1017 30.03 847 25.01 26.8 80.3 18 0.9 33.5
13:55 1017 30.03 847 25.01 26.3 79.4 19 1.2 34.1
14:00 1017 30.03 847 25.01 26.6 79.9 18 0.8 33.4
14:05 1017 30.03 847 25.01 26.9 80.4 17 0.3 32.6
14:10 1017 30.03 847 25.01 27 80.5 18 1.3 34.3
14:15 1017 30.03 846 24.98 26.8 80.3 18 0.5 32.9
14:20 1017 30.03 846 24.98 26.5 79.8 17 0 32
14:25 1017 30.03 846 24.98 26.8 80.2 17 0 32.1
14:30 1017 30.03 846 24.98 27.2 80.9 17 0.2 32.4
14:35 1017 30.03 846 24.98 27.6 81.8 16 -0.3 31.5
14:40 1017 30.03 846 24.98 26.5 79.6 17 -0.1 31.8
14:45 1017 30.03 846 24.98 25.9 78.7 17 -0.6 31
14:50 1017 30.03 846 24.98 26.1 78.9 16 -1.2 29.8
14:55 1017 30.03 846 24.98 25.3 77.5 18 -0.8 30.6
15:00 1017 30.03 846 24.98 25.5 77.8 19 0.4 32.7
15:05 1017 30.03 846 24.98 25.2 77.4 19 -0.1 31.9
15:10 1017 30.03 846 24.98 24.9 76.8 19 -0 32
15:15 1017 30.03 846 24.98 25.6 78.1 18 -0.6 30.9
15:20 1017 30.03 846 24.98 25.4 77.7 20 1 33.8
15:25 1017 30.03 846 24.98 24.7 76.5 21 1 33.8
15:30 1017 30.03 846 24.98 24.1 75.4 23 1.7 35.1
15:35 1017 30.03 846 24.98 23.7 74.6 21 0.5 32.9
15:40 1017 30.03 846 24.98 24.4 75.9 20 0.1 32.1
15:45 1017 30.03 846 24.98 24.1 75.3 20 -0.3 31.5
15:50 1017 30.03 846 24.98 23.5 74.3 22 0.8 33.5
15:55 1017 30.03 846 24.98 23.3 74 23 1.4 34.4
16:00 1017 30.03 846 24.98 22.8 73.1 23 0.8 33.4
16:05 1017 30.03 846 24.98 22.3 72.1 24 0.8 33.5
16:10 1017 30.03 846 24.98 22.2 71.9 24 1 33.8
16:15 1017 30.03 846 24.98 21.7 71 28 2.6 36.7
16:20 1017 30.03 846 24.98 21.6 70.8 27 2.1 35.8
16:25 1017 30.03 846 24.98 22 71.5 24 0.9 33.5
16:30 1017 30.03 846 24.98 22.2 72 23 0.2 32.4
16:35 1017 30.03 846 24.98 22.6 72.8 29 3.7 38.7
16:40 1017 30.03 846 24.98 21.7 71 30 3.7 38.7
16:45 1017 30.03 846 24.98 21.5 70.8 31 4.1 39.3
16:50 1017 30.03 846 24.98 21.4 70.5 27 1.6 34.8
16:55 1017 30.03 846 24.98 21.8 71.3 27 2.4 36.3
17:00 1017 30.03 846 24.98 22.6 72.7 27 2.7 36.8
17:05 1017 30.03 846 24.98 22.7 72.9 28 3.5 38.3
17:10 1017 30.03 846 24.98 22.3 72.1 28 3.1 37.5
17:15 1017 30.03 846 24.98 21.7 71.1 28 2.5 36.6
17:20 1017 30.03 846 24.98 21.5 70.6 27 1.9 35.5
17:25 1017 30.03 846 24.98 21.2 70.1 28 2.3 36.1
17:30 1017 30.03 846 24.98 21 69.7 28 2.1 35.8
17:35 1017 30.03 846 24.98 20.9 69.7 28 1.8 35.3
17:40 1016 30 846 24.98 20.8 69.5 28 1.6 34.9
17:45 1016 30 846 24.98 20.9 69.6 26 0.9 33.6
17:50 1016 30 846 24.98 21 69.7 26 1 33.7
17:55 1016 30 846 24.98 21 69.8 26 0.8 33.5
18:00 1016 30 846 24.98 20.9 69.5 27 1.2 34.1
18:05 1016 30 846 24.98 20.7 69.3 28 1.5 34.7
18:10 1016 30 846 24.98 20.6 69.2 27 1.3 34.4
18:15 1016 30 846 24.98 20.5 68.8 28 1.4 34.5
18:20 1016 30 846 24.98 20.4 68.8 28 1.4 34.5
18:25 1016 30 846 24.98 20.4 68.7 28 1.3 34.3
18:30 1017 30.03 846 24.98 20.3 68.5 28 1.6 34.9
18:35 1017 30.03 846 24.98 20.2 68.3 29 1.5 34.7
18:40 1017 30.03 846 24.98 20.1 68.2 29 1.8 35.3
18:45 1017 30.03 846 24.98 20 67.9 31 2.5 36.6
18:50 1017 30.03 846 24.98 19.6 67.2 32 2.7 36.8
18:55 1017 30.03 846 24.98 19.6 67.2 31 2 35.5
19:00 1017 30.03 846 24.98 19.6 67.3 30 1.8 35.3
19:05 1017 30.03 846 24.98 19.6 67.3 30 1.6 34.9
19:10 1017 30.03 846 24.98 19.5 67 30 1.6 34.9
19:15 1017 30.03 846 24.98 19.2 66.5 31 2 35.6
19:20 1017 30.03 846 24.98 18.8 65.9 33 2.5 36.5
19:25 1017 30.03 846 24.98 18.6 65.4 34 2.5 36.5
19:30 1017 30.03 846 24.98 18.4 65.1 34 2.4 36.2
19:35 1016 30 846 24.98 18.2 64.8 35 2.8 37.1
19:40 1017 30.03 846 24.98 18.2 64.7 34 2.2 36
19:45 1017 30.03 846 24.98 18 64.5 34 1.9 35.5
19:50 1016 30 846 24.98 18.1 64.5 34 2 35.6
19:55 1016 30 846 24.98 18 64.4 35 2.2 36
20:00 1016 30 846 24.98 17.8 64.1 35 2.4 36.3
20:05 1016 30 846 24.98 17.7 63.9 33 1.4 34.5
20:10 1017 30.03 846 24.98 17.9 64.2 36 2.9 37.3
20:15 1017 30.03 846 24.98 17.7 63.9 34 1.9 35.4
20:20 1017 30.03 846 24.98 17.7 63.8 36 2.5 36.5
20:25 1017 30.03 846 24.98 17.6 63.7 33 1.5 34.6
20:30 1017 30.03 846 24.98 17.9 64.2 33 1.6 35
20:35 1017 30.03 846 24.98 17.8 64 34 2 35.5
20:40 1017 30.03 846 24.98 17.5 63.5 39 3.5 38.4
20:45 1017 30.03 846 24.98 17.1 62.8 38 2.9 37.3
20:50 1017 30.03 846 24.98 16.7 62.1 39 3 37.4
20:55 1017 30.03 846 24.98 16.4 61.4 40 2.9 37.3
21:00 1017 30.03 846 24.98 16 60.9 42 3.3 37.9
21:05 1016 30 846 24.98 15.7 60.2 44 3.6 38.5
21:10 1016 30 846 24.98 15.6 60 42 2.9 37.2
21:15 1016 30 846 24.98 15.6 60.1 42 2.8 37.1
21:20 1016 30 846 24.98 15.6 60.1 42 2.8 37.1
21:25 1017 30.03 846 24.98 15.6 60 42 2.8 37
21:30 1017 30.03 846 24.98 15.5 60 42 2.6 36.8
21:35 1016 30 846 24.98 15.4 59.7 41 2.4 36.4
21:40 1016 30 846 24.98 15.4 59.8 41 2.4 36.3
21:45 1016 30 846 24.98 15.4 59.7 40 1.9 35.5
21:50 1016 30 846 24.98 15.3 59.5 39 1.6 34.9
21:55 1016 30 846 24.98 15.2 59.4 39 1.5 34.8
22:00 1016 30 846 24.98 15.3 59.5 39 1.5 34.7
22:05 1016 30 846 24.98 15 58.9 41 1.8 35.2
22:10 1016 30 845 24.95 14.8 58.6 41 1.7 35
22:15 1016 30 845 24.95 14.6 58.3 41 1.6 34.9
22:20 1016 30 845 24.95 14.4 57.9 42 1.7 35
22:25 1016 30 845 24.95 14.5 58 40 1.2 34.1
22:30 1016 30 845 24.95 14.6 58.3 40 1.4 34.5
22:35 1016 30 845 24.95 14.3 57.8 41 1.2 34.1
22:40 1016 30 845 24.95 14.3 57.7 41 1.1 34
22:45 1016 30 845 24.95 14.2 57.5 40 1 33.8
22:50 1016 30 845 24.95 14.3 57.7 39 0.7 33.3
22:55 1016 30 845 24.95 14.3 57.7 40 1.1 34
23:00 1016 30 845 24.95 14.2 57.6 39 0.7 33.2
23:05 1016 30 845 24.95 14.4 58 38 0.5 32.9
23:10 1016 30 845 24.95 14.7 58.4 37 0.4 32.7
23:15 1016 30 845 24.95 15.1 59.1 35 -0 32
23:20 1016 30 845 24.95 15.3 59.5 35 -0 32
23:25 1016 30 845 24.95 15.5 59.9 34 -0.2 31.6
23:30 1016 30 845 24.95 15.6 60.2 34 -0.1 31.8
23:35 1016 30 845 24.95 15.8 60.5 34 0 32
23:40 1016 30 845 24.95 15.6 60.1 34 -0.2 31.6
23:45 1016 30 845 24.95 15.8 60.5 34 0.1 32.1
23:50 1016 30 845 24.95 15.5 59.8 39 1.7 35.1
23:55 1016 30 845 24.95 14.6 58.3 41 1.5 34.7
24:00 1016 30 845 24.95 14.5 58.1 39 1 33.8